Time;durP1;ratioP1;P1;durP2;ratioP2;P2;SDS_P1;SDS_P2;PMS_P1;PMS_P2;Temp;Humidity;BMP_temperature;BMP_pressure;BME280_temperature;BME280_humidity;BME280_pressure;Samples;Min_cycle;Max_cycle;Signal;HPM_P1;HPM_P2
2023/12/30 00:01:47;;;;;;;10.20;2.67;;;10.60;99.90;;;;;;5046100;28;20478;-73
2023/12/30 00:04:14;;;;;;;14.30;2.47;;;10.60;99.90;;;;;;5056805;28;21284;-75
2023/12/30 00:06:43;;;;;;;2.87;2.03;;;10.60;99.90;;;;;;5058385;28;20562;-74
2023/12/30 00:09:10;;;;;;;6.93;2.37;;;;;;;;;;5056462;28;20982;-76
2023/12/30 00:11:38;;;;;;;15.13;4.17;;;10.50;99.90;;;;;;5057417;28;20528;-73
2023/12/30 00:14:06;;;;;;;4.00;2.37;;;10.50;99.90;;;;;;5055059;28;20485;-75
2023/12/30 00:16:32;;;;;;;3.87;2.33;;;10.40;99.90;;;;;;5055916;28;20561;-76
2023/12/30 00:18:59;;;;;;;8.10;1.93;;;10.20;99.90;;;;;;5055623;28;20563;-75
2023/12/30 00:21:26;;;;;;;9.80;2.90;;;10.30;99.90;;;;;;5054493;28;20546;-73
2023/12/30 00:23:53;;;;;;;4.57;2.20;;;10.30;99.90;;;;;;5056372;28;20551;-73
2023/12/30 00:26:20;;;;;;;3.70;2.03;;;10.30;99.90;;;;;;5058045;28;20584;-74
2023/12/30 00:28:49;;;;;;;2.97;2.33;;;10.30;99.90;;;;;;5055345;28;20475;-77
2023/12/30 00:31:22;;;;;;;8.50;2.23;;;10.20;99.90;;;;;;5055560;28;20494;-75
2023/12/30 00:33:50;;;;;;;3.70;2.80;;;10.20;99.90;;;;;;5043536;28;20479;-78
2023/12/30 00:36:17;;;;;;;11.53;2.33;;;10.20;99.90;;;;;;5056106;28;21069;-72
2023/12/30 00:38:43;;;;;;;4.67;2.10;;;10.20;99.90;;;;;;5056517;28;20566;-72
2023/12/30 00:41:12;;;;;;;3.40;1.30;;;10.20;99.90;;;;;;5056223;28;20566;-70
2023/12/30 00:43:41;;;;;;;5.10;1.83;;;10.20;99.90;;;;;;5056861;28;21007;-68
2023/12/30 00:46:09;;;;;;;2.93;2.57;;;10.20;99.90;;;;;;5057516;28;20564;-69
2023/12/30 00:48:37;;;;;;;2.20;1.37;;;10.10;99.90;;;;;;5057475;28;22811;-71
2023/12/30 00:51:04;;;;;;;3.70;2.87;;;10.10;99.90;;;;;;5057745;28;20556;-71
2023/12/30 00:53:31;;;;;;;5.70;1.93;;;10.20;99.90;;;;;;5057665;28;20980;-68
2023/12/30 00:55:58;;;;;;;3.83;2.60;;;10.20;99.90;;;;;;5057277;28;20544;-69
2023/12/30 00:58:25;;;;;;;4.13;2.23;;;10.20;99.90;;;;;;5052693;28;20483;-70
2023/12/30 01:00:52;;;;;;;2.27;2.00;;;10.10;99.90;;;;;;5055223;28;20588;-68
2023/12/30 01:03:21;;;;;;;2.43;1.70;;;10.20;99.90;;;;;;5055350;28;20475;-68
2023/12/30 01:05:48;;;;;;;7.33;2.63;;;10.10;99.90;;;;;;5055413;28;20884;-74
2023/12/30 01:08:15;;;;;;;3.37;2.07;;;10.10;99.90;;;;;;5057836;28;20486;-70
2023/12/30 01:10:42;;;;;;;2.87;1.83;;;10.10;99.90;;;;;;5055152;28;20554;-70
2023/12/30 01:13:09;;;;;;;7.50;2.40;;;10.10;99.90;;;;;;5054918;28;20483;-70
2023/12/30 01:15:36;;;;;;;7.00;2.00;;;10.20;99.90;;;;;;5053443;28;20529;-69
2023/12/30 01:18:03;;;;;;;3.30;1.77;;;10.20;99.90;;;;;;5057378;28;20595;-68
2023/12/30 01:20:32;;;;;;;4.50;1.80;;;10.30;99.90;;;;;;5055063;28;20826;-68
2023/12/30 01:22:59;;;;;;;4.73;2.97;;;10.30;99.90;;;;;;5057220;28;20535;-68
2023/12/30 01:25:26;;;;;;;6.60;3.20;;;10.30;99.90;;;;;;5055149;28;20510;-70
2023/12/30 01:27:53;;;;;;;6.10;3.00;;;10.30;99.90;;;;;;5054048;28;20532;-71
2023/12/30 01:30:20;;;;;;;2.17;1.80;;;10.20;99.90;;;;;;5053315;28;21127;-71
2023/12/30 01:32:47;;;;;;;9.40;2.47;;;10.20;99.90;;;;;;5051232;28;20486;-69
2023/12/30 01:35:15;;;;;;;8.43;3.10;;;10.30;99.90;;;;;;5056591;28;20490;-71
2023/12/30 01:37:44;;;;;;;3.40;2.87;;;10.30;99.90;;;;;;5054906;28;20974;-70
2023/12/30 01:40:11;;;;;;;7.90;3.80;;;10.30;99.90;;;;;;5055595;28;20496;-70
2023/12/30 01:42:41;;;;;;;2.10;1.70;;;10.30;99.90;;;;;;5053573;28;20556;-71
2023/12/30 01:45:08;;;;;;;6.67;2.33;;;10.40;99.90;;;;;;5026298;28;20499;-69
2023/12/30 01:47:36;;;;;;;13.03;3.90;;;10.40;99.90;;;;;;5064725;28;20475;-69
2023/12/30 01:50:04;;;;;;;5.63;2.27;;;10.40;99.90;;;;;;5055081;28;20467;-70
2023/12/30 01:52:32;;;;;;;4.10;1.80;;;10.40;99.90;;;;;;5054538;28;21095;-70
2023/12/30 01:55:00;;;;;;;3.60;2.20;;;10.40;99.90;;;;;;5054771;28;20528;-70
2023/12/30 01:57:27;;;;;;;4.30;2.50;;;10.50;99.90;;;;;;5052349;28;20479;-70
2023/12/30 01:59:54;;;;;;;3.50;1.90;;;10.40;99.90;;;;;;5059126;28;20491;-70
2023/12/30 02:02:22;;;;;;;2.80;2.20;;;10.40;99.90;;;;;;5053136;28;20554;-69
2023/12/30 02:04:49;;;;;;;5.97;2.90;;;10.50;99.90;;;;;;5053798;28;20475;-69
2023/12/30 02:07:17;;;;;;;10.10;2.00;;;10.50;99.90;;;;;;5054420;28;20582;-71
2023/12/30 02:09:44;;;;;;;5.53;2.10;;;10.40;99.90;;;;;;5052212;28;20533;-71
2023/12/30 02:12:12;;;;;;;5.63;2.10;;;;;;;;;;5053369;28;20561;-69
2023/12/30 02:14:40;;;;;;;16.33;2.77;;;10.50;99.90;;;;;;5054008;28;20924;-70
2023/12/30 02:17:07;;;;;;;5.30;2.20;;;10.50;99.90;;;;;;5035570;28;20598;-70
2023/12/30 02:19:35;;;;;;;8.13;2.30;;;10.40;99.90;;;;;;5033994;28;20596;-70
2023/12/30 02:22:02;;;;;;;9.13;2.40;;;10.40;99.90;;;;;;5034585;28;20495;-71
2023/12/30 02:24:31;;;;;;;24.63;3.90;;;10.40;99.90;;;;;;5033871;28;20479;-69
2023/12/30 02:26:58;;;;;;;3.60;2.30;;;10.40;99.90;;;;;;5033807;28;20986;-71
2023/12/30 02:29:24;;;;;;;3.23;2.03;;;10.40;99.90;;;;;;5034154;28;21127;-70
2023/12/30 02:31:51;;;;;;;3.13;2.83;;;10.40;99.90;;;;;;5041277;28;21174;-70
2023/12/30 02:34:20;;;;;;;5.23;1.90;;;10.20;99.90;;;;;;5052105;28;20989;-71
2023/12/30 02:36:47;;;;;;;5.00;1.87;;;10.30;99.90;;;;;;5052641;28;20490;-70
2023/12/30 02:39:14;;;;;;;3.97;1.60;;;10.40;99.90;;;;;;5047670;28;20484;-70
2023/12/30 02:41:42;;;;;;;3.40;1.50;;;10.40;99.90;;;;;;5034429;28;21083;-71
2023/12/30 02:44:09;;;;;;;10.03;1.90;;;10.40;99.90;;;;;;5033559;28;20567;-68
2023/12/30 02:46:36;;;;;;;3.77;1.70;;;10.40;99.90;;;;;;5032965;28;21002;-70
2023/12/30 02:49:04;;;;;;;10.00;2.60;;;10.40;99.90;;;;;;5034127;28;21000;-71
2023/12/30 02:51:31;;;;;;;7.50;2.10;;;10.40;99.90;;;;;;5033060;28;20559;-72
2023/12/30 02:53:58;;;;;;;3.63;1.53;;;10.20;99.90;;;;;;5032221;28;20555;-71
2023/12/30 02:56:27;;;;;;;7.80;2.37;;;10.30;99.90;;;;;;5053169;28;20566;-70
2023/12/30 02:58:57;;;;;;;11.63;2.20;;;10.40;99.90;;;;;;5053133;28;20557;-71
2023/12/30 03:01:25;;;;;;;8.03;2.20;;;10.20;99.90;;;;;;5055100;28;20483;-68
2023/12/30 03:03:53;;;;;;;4.53;3.03;;;10.20;99.90;;;;;;5053566;28;20474;-70
2023/12/30 03:06:21;;;;;;;5.43;2.83;;;10.20;99.90;;;;;;5053680;28;20563;-71
2023/12/30 03:08:48;;;;;;;4.00;2.70;;;10.20;99.90;;;;;;5053773;28;20589;-71
2023/12/30 03:11:15;;;;;;;12.10;2.87;;;10.20;99.90;;;;;;5054328;28;20901;-70
2023/12/30 03:13:41;;;;;;;6.60;3.80;;;10.20;99.90;;;;;;5053009;28;20923;-71
2023/12/30 03:16:13;;;;;;;7.70;4.87;;;;;;;;;;5054167;28;20513;-71
2023/12/30 03:18:40;;;;;;;7.00;3.50;;;10.00;99.90;;;;;;5054066;28;20501;-71
2023/12/30 03:21:08;;;;;;;8.03;5.00;;;9.80;99.90;;;;;;5053971;28;20883;-70
2023/12/30 03:23:35;;;;;;;10.40;5.60;;;9.70;99.90;;;;;;5053873;28;20474;-68
2023/12/30 03:26:02;;;;;;;6.93;6.10;;;9.80;99.90;;;;;;5054648;28;20593;-70
2023/12/30 03:28:29;;;;;;;6.30;4.43;;;9.60;99.90;;;;;;5054106;28;22289;-69
2023/12/30 03:30:56;;;;;;;11.63;5.83;;;9.70;99.90;;;;;;5043844;28;20451;-69
2023/12/30 03:33:24;;;;;;;3.40;2.73;;;9.70;99.90;;;;;;5053217;28;20503;-71
2023/12/30 03:35:51;;;;;;;12.33;4.90;;;9.70;99.90;;;;;;5054307;28;20474;-70
2023/12/30 03:38:17;;;;;;;4.90;4.40;;;9.70;99.90;;;;;;5052746;28;20570;-71
2023/12/30 03:40:45;;;;;;;9.40;4.10;;;9.80;99.90;;;;;;5052729;28;20565;-70
2023/12/30 03:43:11;;;;;;;2.97;1.87;;;9.80;99.90;;;;;;5054657;28;20475;-70
2023/12/30 03:45:38;;;;;;;9.63;4.00;;;9.80;99.90;;;;;;5048339;28;20560;-70
2023/12/30 03:48:06;;;;;;;5.87;3.90;;;9.70;99.90;;;;;;5064245;28;20540;-70
2023/12/30 03:50:36;;;;;;;8.67;5.53;;;9.70;99.90;;;;;;5054506;28;20556;-69
2023/12/30 03:53:04;;;;;;;8.90;3.27;;;9.50;99.90;;;;;;5030776;28;20479;-68
2023/12/30 03:55:30;;;;;;;8.53;3.67;;;9.60;99.90;;;;;;5044792;28;20573;-71
2023/12/30 03:57:57;;;;;;;10.30;3.73;;;9.60;99.90;;;;;;5039247;28;20925;-71
2023/12/30 04:00:24;;;;;;;6.17;4.30;;;9.60;99.90;;;;;;5039146;28;20479;-71
2023/12/30 04:02:51;;;;;;;4.40;4.00;;;9.60;99.90;;;;;;5038764;28;20559;-70
2023/12/30 04:05:17;;;;;;;12.07;5.03;;;9.50;99.90;;;;;;5037376;28;20565;-70
2023/12/30 04:07:46;;;;;;;12.93;4.73;;;9.50;99.90;;;;;;5032739;28;20517;-71
2023/12/30 04:10:14;;;;;;;4.87;2.97;;;9.40;99.90;;;;;;5050555;28;20565;-71
2023/12/30 04:12:41;;;;;;;5.23;3.93;;;9.50;99.90;;;;;;5042779;28;20482;-70
2023/12/30 04:15:09;;;;;;;5.30;3.07;;;9.50;99.90;;;;;;5045417;28;20480;-70
2023/12/30 04:17:36;;;;;;;7.13;4.07;;;9.60;99.90;;;;;;5039889;28;20550;-70
2023/12/30 04:20:03;;;;;;;5.27;3.73;;;9.60;99.90;;;;;;5048245;28;20566;-70
2023/12/30 04:22:32;;;;;;;6.63;3.70;;;9.50;99.90;;;;;;5059481;28;20487;-71
2023/12/30 04:25:00;;;;;;;7.60;3.30;;;;;;;;;;5047345;28;20496;-69
2023/12/30 04:27:27;;;;;;;13.50;3.50;;;9.60;99.90;;;;;;5057617;28;20516;-70
2023/12/30 04:29:54;;;;;;;3.20;2.27;;;9.60;99.90;;;;;;5052218;28;21184;-72
2023/12/30 04:32:21;;;;;;;13.40;3.90;;;9.70;99.90;;;;;;5046602;28;20559;-70
2023/12/30 04:34:49;;;;;;;3.60;2.97;;;9.70;99.90;;;;;;5047135;28;20479;-70
2023/12/30 04:37:16;;;;;;;8.07;2.83;;;9.70;99.90;;;;;;5052624;28;21188;-69
2023/12/30 04:39:43;;;;;;;6.43;4.00;;;9.60;99.90;;;;;;5052753;28;21193;-70
2023/12/30 04:42:12;;;;;;;8.07;3.27;;;9.80;99.90;;;;;;5056207;28;20573;-70
2023/12/30 04:44:39;;;;;;;5.67;2.70;;;9.80;99.90;;;;;;5061653;28;20503;-70
2023/12/30 04:47:06;;;;;;;6.80;2.43;;;9.80;99.90;;;;;;5061865;28;20491;-69
2023/12/30 04:49:33;;;;;;;6.63;3.90;;;9.80;99.90;;;;;;5057763;28;22084;-69
2023/12/30 04:52:00;;;;;;;8.73;5.30;;;9.70;99.90;;;;;;5056005;28;20555;-70
2023/12/30 04:54:27;;;;;;;8.60;4.53;;;9.70;99.90;;;;;;5043566;28;20979;-71
2023/12/30 04:56:54;;;;;;;13.33;5.00;;;;;;;;;;5058355;28;20930;-68
2023/12/30 04:59:22;;;;;;;9.80;4.80;;;9.60;99.90;;;;;;5055643;28;20490;-70
2023/12/30 05:01:49;;;;;;;10.90;2.97;;;9.60;99.90;;;;;;5068960;28;21067;-68
2023/12/30 05:04:16;;;;;;;8.57;5.80;;;9.60;99.90;;;;;;5068093;28;20902;-69
2023/12/30 05:06:43;;;;;;;15.87;4.93;;;9.50;99.90;;;;;;5058495;28;20884;-70
2023/12/30 05:09:14;;;;;;;6.00;4.10;;;9.60;99.90;;;;;;5055606;28;20492;-70
2023/12/30 05:11:43;;;;;;;4.60;3.43;;;9.60;99.90;;;;;;5050733;28;21090;-69
2023/12/30 05:14:10;;;;;;;10.30;4.40;;;9.60;99.90;;;;;;5043442;28;20935;-68
2023/12/30 05:16:44;;;;;;;12.70;3.30;;;9.60;99.90;;;;;;5043189;28;20570;-70
2023/12/30 05:19:11;;;;;;;4.50;3.60;;;9.60;99.90;;;;;;5038913;28;20484;-70
2023/12/30 05:21:38;;;;;;;11.53;4.33;;;9.70;99.90;;;;;;5044277;28;20908;-71
2023/12/30 05:24:06;;;;;;;5.13;4.63;;;9.70;99.90;;;;;;5060922;28;20503;-67
2023/12/30 05:26:33;;;;;;;2.90;2.10;;;9.70;99.90;;;;;;5054419;28;20583;-69
2023/12/30 05:28:59;;;;;;;9.90;3.00;;;9.60;99.90;;;;;;5041535;28;21069;-69
2023/12/30 05:31:26;;;;;;;5.50;4.30;;;9.60;99.90;;;;;;5056816;28;20606;-70
2023/12/30 05:33:55;;;;;;;5.00;3.10;;;;;;;;;;5041667;28;20476;-70
2023/12/30 05:36:22;;;;;;;10.83;4.83;;;9.60;99.90;;;;;;5041560;28;20566;-70
2023/12/30 05:38:48;;;;;;;17.57;5.60;;;9.60;99.90;;;;;;5041306;28;20467;-69
2023/12/30 05:41:15;;;;;;;8.03;2.60;;;9.60;99.90;;;;;;5025231;28;20518;-69
2023/12/30 05:43:42;;;;;;;4.60;3.73;;;9.70;99.90;;;;;;5041500;28;20557;-71
2023/12/30 05:46:15;;;;;;;13.43;3.53;;;9.60;99.90;;;;;;5040785;28;20553;-73
2023/12/30 05:48:41;;;;;;;6.20;4.53;;;9.50;99.90;;;;;;5056940;28;20463;-73
2023/12/30 05:51:09;;;;;;;12.00;3.37;;;9.70;99.90;;;;;;5056031;28;20599;-75
2023/12/30 05:53:36;;;;;;;5.20;3.03;;;9.60;99.90;;;;;;5053240;28;22217;-76
2023/12/30 05:56:03;;;;;;;16.00;2.90;;;9.70;99.90;;;;;;5051926;28;20518;-71
2023/12/30 05:58:30;;;;;;;9.33;3.37;;;9.70;99.90;;;;;;5056871;28;20570;-70
2023/12/30 06:00:57;;;;;;;2.87;1.97;;;9.70;99.90;;;;;;5047553;28;20848;-69
2023/12/30 06:03:24;;;;;;;4.10;3.50;;;9.70;99.90;;;;;;5055542;28;20907;-70
2023/12/30 06:05:51;;;;;;;2.33;1.80;;;9.70;99.90;;;;;;5047795;28;20491;-69
2023/12/30 06:08:19;;;;;;;7.97;3.00;;;9.60;99.90;;;;;;5048075;28;20561;-70
2023/12/30 06:10:51;;;;;;;7.40;2.13;;;9.70;99.90;;;;;;5048750;28;20579;-69
2023/12/30 06:13:17;;;;;;;4.73;2.00;;;9.60;99.90;;;;;;5043580;28;20830;-70
2023/12/30 06:15:49;;;;;;;11.93;3.03;;;9.70;99.90;;;;;;5040750;28;21006;-68
2023/12/30 06:18:16;;;;;;;5.90;2.73;;;9.70;99.90;;;;;;5024161;28;21039;-71
2023/12/30 06:20:45;;;;;;;3.60;3.30;;;9.70;99.90;;;;;;5043422;28;21195;-70
2023/12/30 06:23:12;;;;;;;13.47;3.57;;;9.70;99.90;;;;;;5038988;28;20567;-70
2023/12/30 06:25:40;;;;;;;4.57;3.87;;;9.80;99.90;;;;;;5039158;28;20592;-70
2023/12/30 06:28:07;;;;;;;7.27;4.40;;;9.70;99.90;;;;;;5040660;28;21239;-71
2023/12/30 06:30:33;;;;;;;9.80;4.10;;;9.80;99.90;;;;;;5038704;28;21026;-71
2023/12/30 06:33:06;;;;;;;8.43;2.90;;;9.80;99.90;;;;;;5039947;28;20587;-68
2023/12/30 06:35:33;;;;;;;4.40;2.63;;;9.80;99.90;;;;;;5039278;28;20496;-69
2023/12/30 06:38:00;;;;;;;4.90;4.40;;;;;;;;;;5040457;28;20554;-71
2023/12/30 06:40:27;;;;;;;3.27;2.97;;;9.90;99.90;;;;;;5040945;28;20948;-71
2023/12/30 06:42:55;;;;;;;23.33;6.10;;;10.00;99.90;;;;;;5036178;28;21028;-68
2023/12/30 06:45:22;;;;;;;6.53;4.40;;;10.10;99.90;;;;;;5042621;28;20492;-71
2023/12/30 06:47:49;;;;;;;11.73;3.87;;;10.10;99.90;;;;;;5047837;28;21035;-70
2023/12/30 06:50:16;;;;;;;13.40;4.57;;;10.10;99.90;;;;;;5057483;28;21046;-69
2023/12/30 06:52:43;;;;;;;12.40;3.63;;;10.20;99.90;;;;;;5037873;28;20537;-71
2023/12/30 06:55:11;;;;;;;7.60;4.60;;;10.20;99.90;;;;;;5040147;28;20953;-70
2023/12/30 06:57:38;;;;;;;11.70;4.37;;;10.20;99.90;;;;;;5032104;28;20490;-69
2023/12/30 07:00:08;;;;;;;13.03;4.03;;;10.20;99.90;;;;;;5047942;28;20506;-70
2023/12/30 07:02:35;;;;;;;17.10;4.30;;;10.10;99.90;;;;;;5034935;28;20569;-70
2023/12/30 07:05:02;;;;;;;7.20;4.73;;;10.00;99.90;;;;;;5036559;28;20487;-71
2023/12/30 07:07:29;;;;;;;5.30;4.30;;;10.00;99.90;;;;;;5034720;28;20489;-70
2023/12/30 07:09:56;;;;;;;3.80;3.40;;;10.00;99.90;;;;;;5033709;28;21002;-69
2023/12/30 07:12:22;;;;;;;5.33;3.87;;;10.00;99.90;;;;;;5039732;28;20518;-69
2023/12/30 07:14:49;;;;;;;4.63;3.40;;;10.00;99.90;;;;;;5040466;28;20880;-70
2023/12/30 07:17:17;;;;;;;41.10;6.37;;;9.90;99.90;;;;;;5045868;28;20549;-71
2023/12/30 07:19:44;;;;;;;5.60;3.20;;;9.90;99.90;;;;;;5036985;28;20533;-71
2023/12/30 07:22:12;;;;;;;8.63;3.63;;;9.90;99.90;;;;;;5038515;28;20607;-71
2023/12/30 07:24:39;;;;;;;10.13;4.73;;;9.90;99.90;;;;;;5039219;28;20541;-71
2023/12/30 07:27:06;;;;;;;6.97;4.73;;;9.90;99.90;;;;;;5039733;28;20921;-71
2023/12/30 07:29:33;;;;;;;8.20;4.10;;;9.90;99.90;;;;;;5038932;28;20564;-70
2023/12/30 07:32:00;;;;;;;7.27;4.33;;;9.90;99.90;;;;;;5048410;28;20483;-72
2023/12/30 07:34:28;;;;;;;11.40;4.60;;;9.90;99.90;;;;;;5048084;28;20487;-69
2023/12/30 07:36:56;;;;;;;3.00;1.37;;;9.90;99.90;;;;;;5051924;28;21180;-70
2023/12/30 07:39:22;;;;;;;18.77;3.63;;;10.00;99.90;;;;;;5043540;28;20475;-70
2023/12/30 07:41:49;;;;;;;5.53;3.23;;;9.90;99.90;;;;;;5042445;28;21022;-70
2023/12/30 07:44:16;;;;;;;4.67;2.73;;;10.00;99.90;;;;;;5042882;28;20886;-69
2023/12/30 07:46:43;;;;;;;11.10;2.33;;;9.90;99.90;;;;;;5043434;28;20594;-69
2023/12/30 07:49:10;;;;;;;5.70;1.83;;;9.90;99.90;;;;;;5043516;28;21097;-71
2023/12/30 07:51:38;;;;;;;16.70;5.60;;;9.80;99.90;;;;;;5043130;28;20582;-69
2023/12/30 07:54:05;;;;;;;3.80;3.17;;;9.80;99.90;;;;;;5043844;28;20581;-70
2023/12/30 07:56:32;;;;;;;9.03;2.33;;;9.90;99.90;;;;;;5042693;28;20514;-71
2023/12/30 07:58:59;;;;;;;29.80;3.50;;;10.00;99.90;;;;;;5042850;28;20551;-70
2023/12/30 08:01:26;;;;;;;5.27;3.00;;;10.00;99.90;;;;;;5046681;28;20488;-72
2023/12/30 08:03:53;;;;;;;2.90;2.50;;;9.90;99.90;;;;;;5052006;28;20470;-71
2023/12/30 08:06:20;;;;;;;12.67;3.90;;;10.00;99.90;;;;;;5063085;28;20494;-70
2023/12/30 08:08:48;;;;;;;14.50;3.40;;;10.00;99.90;;;;;;5062375;28;20546;-71
2023/12/30 08:11:15;;;;;;;4.40;2.57;;;10.00;99.90;;;;;;5063407;28;20575;-69
2023/12/30 08:13:41;;;;;;;14.67;2.70;;;10.00;99.90;;;;;;5061705;28;20566;-70
2023/12/30 08:16:08;;;;;;;2.90;2.03;;;10.00;99.90;;;;;;5062426;28;20561;-70
2023/12/30 08:18:34;;;;;;;7.03;2.83;;;10.00;99.90;;;;;;5061138;28;20344;-69
2023/12/30 08:21:02;;;;;;;4.63;3.03;;;10.10;99.90;;;;;;5063290;28;20486;-71
2023/12/30 08:23:29;;;;;;;6.87;4.70;;;10.00;99.90;;;;;;5061501;28;21005;-71
2023/12/30 08:25:57;;;;;;;5.90;3.77;;;10.00;99.90;;;;;;5062732;28;20556;-69
2023/12/30 08:28:23;;;;;;;9.60;3.40;;;10.20;99.90;;;;;;5049282;28;20499;-70
2023/12/30 08:30:53;;;;;;;6.20;2.83;;;10.20;99.90;;;;;;5062387;28;21242;-71
2023/12/30 08:33:20;;;;;;;10.53;4.47;;;10.20;99.90;;;;;;5061420;28;20479;-69
2023/12/30 08:35:48;;;;;;;3.00;2.70;;;10.10;99.90;;;;;;5061258;28;20483;-70
2023/12/30 08:38:15;;;;;;;3.60;2.23;;;10.10;99.90;;;;;;5062030;28;20878;-70
2023/12/30 08:40:42;;;;;;;7.10;2.13;;;10.20;99.90;;;;;;5060143;28;20503;-71
2023/12/30 08:43:11;;;;;;;11.57;3.40;;;10.10;99.90;;;;;;5051499;28;20533;-71
2023/12/30 08:45:38;;;;;;;7.50;2.40;;;10.30;99.90;;;;;;5061649;28;20487;-69
2023/12/30 08:48:06;;;;;;;6.17;2.33;;;10.30;99.90;;;;;;5062757;28;21118;-69
2023/12/30 08:50:33;;;;;;;4.43;2.70;;;10.30;99.90;;;;;;5060931;28;20475;-70
2023/12/30 08:53:00;;;;;;;3.73;2.27;;;10.20;99.90;;;;;;5060862;28;20563;-71
2023/12/30 08:55:26;;;;;;;1.90;1.10;;;10.30;99.90;;;;;;5060355;28;20985;-70
2023/12/30 08:57:53;;;;;;;4.50;2.43;;;10.30;99.90;;;;;;5064987;28;21016;-69
2023/12/30 09:00:22;;;;;;;2.63;2.10;;;10.30;99.90;;;;;;5061632;28;21164;-70
2023/12/30 09:02:48;;;;;;;9.60;2.00;;;10.30;99.90;;;;;;5062506;28;20536;-69
2023/12/30 09:05:17;;;;;;;18.10;1.97;;;10.20;99.90;;;;;;5060319;28;21048;-71
2023/12/30 09:07:44;;;;;;;4.70;2.73;;;10.30;99.90;;;;;;5061410;28;20502;-69
2023/12/30 09:10:11;;;;;;;4.70;1.80;;;10.30;99.90;;;;;;5061720;28;20478;-69
2023/12/30 09:12:38;;;;;;;2.80;1.50;;;10.30;99.90;;;;;;5061464;28;20571;-70
2023/12/30 09:15:06;;;;;;;16.00;2.80;;;10.40;99.90;;;;;;5057548;28;20554;-70
2023/12/30 09:17:34;;;;;;;7.93;2.17;;;10.40;99.90;;;;;;5061933;28;20478;-70
2023/12/30 09:20:01;;;;;;;3.00;1.30;;;10.40;99.90;;;;;;5063277;28;20469;-71
2023/12/30 09:22:28;;;;;;;4.33;2.00;;;10.40;99.90;;;;;;5065046;28;20977;-70
2023/12/30 09:24:55;;;;;;;7.53;1.73;;;10.50;99.90;;;;;;5059297;28;21016;-69
2023/12/30 09:27:22;;;;;;;13.30;2.90;;;10.50;99.90;;;;;;5062142;28;20502;-68
2023/12/30 09:29:49;;;;;;;2.97;1.63;;;10.50;99.90;;;;;;5058242;28;21546;-67
2023/12/30 09:32:16;;;;;;;1.90;1.40;;;10.40;99.90;;;;;;5058628;28;20558;-70
2023/12/30 09:34:44;;;;;;;7.07;2.40;;;10.50;99.90;;;;;;5058794;28;21009;-70
2023/12/30 09:37:11;;;;;;;6.73;2.53;;;10.40;99.90;;;;;;5062159;28;20479;-69
2023/12/30 09:39:38;;;;;;;9.90;1.90;;;10.50;99.90;;;;;;5060902;28;20504;-69
2023/12/30 09:42:06;;;;;;;11.50;2.20;;;10.50;99.90;;;;;;5062432;28;20839;-70
2023/12/30 09:44:33;;;;;;;6.70;2.00;;;10.40;99.90;;;;;;5061011;28;20554;-69
2023/12/30 09:47:02;;;;;;;4.63;1.83;;;10.50;99.90;;;;;;5061551;28;20475;-68
2023/12/30 09:49:34;;;;;;;6.30;2.33;;;10.60;99.90;;;;;;5064657;28;20873;-71
2023/12/30 09:52:04;;;;;;;8.37;2.47;;;10.70;99.90;;;;;;5049892;28;20536;-70
2023/12/30 09:54:30;;;;;;;3.80;2.13;;;10.70;99.90;;;;;;5050282;28;20467;-70
2023/12/30 09:56:57;;;;;;;7.87;2.63;;;10.70;99.90;;;;;;5060847;28;20459;-66
2023/12/30 09:59:26;;;;;;;2.83;1.40;;;10.80;99.90;;;;;;5060689;28;20946;-69
2023/12/30 10:01:54;;;;;;;4.73;2.50;;;10.60;99.90;;;;;;5060355;28;20483;-69
2023/12/30 10:04:21;;;;;;;8.73;2.30;;;10.70;99.90;;;;;;5060526;28;20574;-68
2023/12/30 10:06:50;;;;;;;5.30;2.00;;;10.70;99.90;;;;;;5059531;28;20481;-70
2023/12/30 10:09:19;;;;;;;11.80;2.70;;;10.90;99.90;;;;;;5059883;28;20554;-70
2023/12/30 10:11:46;;;;;;;3.20;1.47;;;10.80;99.90;;;;;;5059656;28;21052;-70
2023/12/30 10:14:12;;;;;;;5.50;2.10;;;10.80;99.90;;;;;;5060576;28;20517;-70
2023/12/30 10:16:39;;;;;;;5.93;1.73;;;10.80;99.90;;;;;;5058618;28;20997;-67
2023/12/30 10:19:09;;;;;;;4.53;2.30;;;10.80;99.90;;;;;;5059647;28;20562;-69
2023/12/30 10:21:37;;;;;;;2.10;1.40;;;10.80;99.90;;;;;;5059547;28;20554;-69
2023/12/30 10:24:04;;;;;;;6.87;2.43;;;10.90;99.90;;;;;;5056296;28;20570;-69
2023/12/30 10:26:33;;;;;;;11.90;1.93;;;10.90;99.90;;;;;;5061230;28;21131;-70
2023/12/30 10:29:00;;;;;;;16.63;1.87;;;10.90;99.90;;;;;;5060968;28;21039;-70
2023/12/30 10:31:27;;;;;;;10.70;3.10;;;10.90;99.90;;;;;;5059913;28;20482;-69
2023/12/30 10:33:54;;;;;;;16.10;2.77;;;10.90;99.90;;;;;;5057691;28;20483;-69
2023/12/30 10:36:21;;;;;;;12.50;1.90;;;10.90;99.90;;;;;;5058310;28;20908;-70
2023/12/30 10:38:50;;;;;;;2.90;2.10;;;11.10;99.90;;;;;;5059494;28;20485;-69
2023/12/30 10:41:16;;;;;;;12.70;2.70;;;11.00;99.90;;;;;;5060669;28;20491;-69
2023/12/30 10:43:45;;;;;;;11.80;1.83;;;;;;;;;;5031462;28;20570;-69
2023/12/30 10:46:13;;;;;;;3.80;1.60;;;11.10;99.90;;;;;;5074079;28;20530;-70
2023/12/30 10:48:50;;;;;;;13.47;2.63;;;11.00;99.90;;;;;;5058996;28;20565;-70
2023/12/30 10:51:23;;;;;;;5.33;2.00;;;11.10;99.90;;;;;;5056639;28;21071;-69
2023/12/30 10:54:00;;;;;;;4.83;1.57;;;11.20;99.90;;;;;;5059633;28;20477;-69
2023/12/30 10:56:30;;;;;;;4.03;2.03;;;11.30;99.90;;;;;;5058645;28;20497;-69
2023/12/30 10:59:01;;;;;;;17.70;3.03;;;11.30;99.90;;;;;;5057645;28;20562;-69
2023/12/30 11:01:29;;;;;;;2.23;1.33;;;11.40;99.90;;;;;;5059965;28;20467;-68
2023/12/30 11:03:56;;;;;;;9.77;1.97;;;11.60;99.90;;;;;;5060948;28;20532;-70
2023/12/30 11:06:27;;;;;;;5.13;1.80;;;11.60;99.90;;;;;;5064100;28;20525;-69
2023/12/30 11:08:58;;;;;;;4.00;2.03;;;11.70;99.90;;;;;;5063066;28;21082;-68
2023/12/30 11:11:25;;;;;;;16.23;3.00;;;11.80;99.90;;;;;;5064653;28;21579;-67
2023/12/30 11:13:57;;;;;;;2.30;1.40;;;11.80;99.90;;;;;;5063300;28;20498;-68
2023/12/30 11:16:26;;;;;;;6.37;2.10;;;11.70;99.90;;;;;;5063945;28;20495;-68
2023/12/30 11:18:55;;;;;;;6.40;1.60;;;11.50;99.90;;;;;;5062432;28;20591;-70
2023/12/30 11:21:37;;;;;;;2.00;1.33;;;11.70;99.90;;;;;;5064264;28;20482;-69
2023/12/30 11:24:06;;;;;;;5.10;1.40;;;11.60;99.90;;;;;;5063815;28;20548;-69
2023/12/30 11:26:35;;;;;;;7.60;3.40;;;11.60;99.90;;;;;;5059105;28;20474;-70
2023/12/30 11:29:03;;;;;;;8.80;1.90;;;11.70;99.90;;;;;;5071975;28;20999;-70
2023/12/30 11:31:36;;;;;;;3.73;1.40;;;11.80;99.90;;;;;;5063749;28;20471;-69
2023/12/30 11:34:04;;;;;;;6.30;1.50;;;11.90;99.90;;;;;;5060343;28;20565;-70
2023/12/30 11:36:31;;;;;;;2.53;1.13;;;11.70;99.90;;;;;;5062033;28;20879;-70
2023/12/30 11:39:00;;;;;;;16.60;3.43;;;11.90;99.90;;;;;;5055044;28;20908;-69
2023/12/30 11:41:29;;;;;;;5.97;1.33;;;12.00;99.90;;;;;;5072857;28;20595;-70
2023/12/30 11:43:57;;;;;;;8.03;1.60;;;11.80;99.90;;;;;;5065351;28;20509;-70
2023/12/30 11:46:24;;;;;;;6.87;1.50;;;11.80;99.90;;;;;;5061507;28;20546;-70
2023/12/30 11:48:52;;;;;;;2.63;1.50;;;11.80;99.90;;;;;;5063112;28;20939;-71
2023/12/30 11:51:22;;;;;;;2.70;1.23;;;11.80;99.90;;;;;;5062423;28;21089;-70
2023/12/30 11:53:49;;;;;;;13.93;1.37;;;11.90;99.90;;;;;;5064178;28;20770;-67
2023/12/30 11:56:17;;;;;;;4.07;1.70;;;12.00;99.90;;;;;;5059401;28;20477;-69
2023/12/30 11:58:44;;;;;;;2.17;1.50;;;12.10;99.90;;;;;;5059596;28;20596;-69
2023/12/30 12:01:11;;;;;;;2.53;0.90;;;11.90;99.90;;;;;;5039913;28;20482;-69
2023/12/30 12:03:37;;;;;;;7.30;1.87;;;11.70;99.90;;;;;;5052914;28;20564;-70
2023/12/30 12:06:06;;;;;;;4.93;1.40;;;11.80;99.90;;;;;;5050931;28;20565;-67
2023/12/30 12:08:33;;;;;;;5.80;1.80;;;11.60;99.90;;;;;;5049181;28;20511;-67
2023/12/30 12:11:00;;;;;;;10.20;2.63;;;11.60;99.90;;;;;;5052016;28;21117;-68
2023/12/30 12:13:28;;;;;;;11.43;2.40;;;;;;;;;;5060232;28;20521;-68
2023/12/30 12:15:56;;;;;;;3.60;1.80;;;11.70;99.90;;;;;;5039534;28;20499;-69
2023/12/30 12:18:24;;;;;;;5.13;1.10;;;11.70;99.90;;;;;;5056077;28;20936;-68
2023/12/30 12:20:51;;;;;;;4.97;1.23;;;11.70;99.90;;;;;;5050731;28;20935;-69
2023/12/30 12:23:23;;;;;;;7.57;1.67;;;11.70;99.90;;;;;;5032090;28;20480;-69
2023/12/30 12:25:50;;;;;;;3.80;0.83;;;11.80;99.90;;;;;;5046543;28;20564;-68
2023/12/30 12:28:19;;;;;;;2.20;1.00;;;11.60;99.90;;;;;;5054127;28;20912;-68
2023/12/30 12:30:46;;;;;;;2.67;1.10;;;11.70;99.90;;;;;;5039549;28;20488;-66
2023/12/30 12:33:14;;;;;;;5.50;1.53;;;11.80;99.90;;;;;;5057791;28;20502;-68
2023/12/30 12:35:41;;;;;;;2.97;1.47;;;12.10;99.90;;;;;;5048308;28;20494;-68
2023/12/30 12:38:08;;;;;;;1.80;1.00;;;12.30;99.90;;;;;;5052577;28;20584;-69
2023/12/30 12:40:38;;;;;;;5.57;1.73;;;;;;;;;;5037074;28;20851;-69
2023/12/30 12:43:04;;;;;;;5.50;1.40;;;12.20;99.90;;;;;;5039324;28;20832;-69
2023/12/30 12:45:31;;;;;;;5.00;1.37;;;12.10;99.90;;;;;;5042039;28;20660;-69
2023/12/30 12:47:58;;;;;;;6.60;1.60;;;12.20;99.90;;;;;;5041507;28;20499;-69
2023/12/30 12:50:25;;;;;;;5.40;1.30;;;12.10;99.90;;;;;;5040921;28;20511;-68
2023/12/30 12:52:52;;;;;;;3.20;0.80;;;12.10;99.90;;;;;;5040703;28;20519;-69